Time;durP1;ratioP1;P1;durP2;ratioP2;P2;SDS_P1;SDS_P2;PMS_P1;PMS_P2;Temp;Humidity;BMP_temperature;BMP_pressure;BME280_temperature;BME280_humidity;BME280_pressure;Samples;Min_cycle;Max_cycle;Signal;HPM_P1;HPM_P2
2023/04/04 00:01:59;;;;;;;4.63;2.60;;;-0.60;99.90;;;;;;4933717;29;20020;-79
2023/04/04 00:04:26;;;;;;;7.30;2.70;;;-0.60;99.90;;;;;;4917427;29;20036;-80
2023/04/04 00:06:52;;;;;;;5.00;2.90;;;-0.60;99.90;;;;;;4933821;29;20050;-80
2023/04/04 00:09:18;;;;;;;7.73;2.70;;;-0.60;99.90;;;;;;4934221;29;21569;-80
2023/04/04 00:11:44;;;;;;;6.03;2.93;;;-0.60;99.90;;;;;;4933433;29;20102;-80
2023/04/04 00:14:10;;;;;;;7.23;3.00;;;-0.60;99.90;;;;;;4933858;29;21457;-80
2023/04/04 00:16:36;;;;;;;6.70;2.83;;;-0.60;99.90;;;;;;4933336;29;20039;-80
2023/04/04 00:19:01;;;;;;;8.63;2.90;;;-0.50;99.90;;;;;;4934125;28;20040;-80
2023/04/04 00:21:27;;;;;;;5.93;3.40;;;-0.60;99.90;;;;;;4932542;29;20483;-80
2023/04/04 00:23:53;;;;;;;7.43;2.83;;;-0.50;99.90;;;;;;4933581;29;20040;-80
2023/04/04 00:26:20;;;;;;;4.50;2.43;;;-0.50;99.90;;;;;;4933720;28;20074;-80
2023/04/04 00:28:46;;;;;;;4.63;2.70;;;-0.40;99.90;;;;;;4917735;29;20031;-80
2023/04/04 00:31:11;;;;;;;5.60;2.50;;;-0.40;99.90;;;;;;4933044;28;20023;-80
2023/04/04 00:33:37;;;;;;;4.97;2.60;;;-0.40;99.90;;;;;;4933634;29;20040;-80
2023/04/04 00:36:03;;;;;;;5.00;2.43;;;-0.40;99.90;;;;;;4933632;28;20027;-80
2023/04/04 00:38:31;;;;;;;4.90;2.50;;;-0.30;99.90;;;;;;4936436;29;20035;-80
2023/04/04 00:40:56;;;;;;;6.63;3.00;;;-0.30;99.90;;;;;;4936634;28;20027;-80
2023/04/04 00:43:22;;;;;;;4.00;2.17;;;-0.40;99.90;;;;;;4936510;28;20518;-80
2023/04/04 00:45:50;;;;;;;4.57;2.50;;;-0.40;99.90;;;;;;4937087;29;20031;-80
2023/04/04 00:48:16;;;;;;;4.57;2.53;;;-0.40;99.90;;;;;;4936718;29;20501;-80
2023/04/04 00:50:42;;;;;;;5.30;2.80;;;-0.50;99.90;;;;;;4936721;28;20030;-80
2023/04/04 00:53:07;;;;;;;5.50;2.60;;;-0.40;99.90;;;;;;4936662;29;20031;-80
2023/04/04 00:55:37;;;;;;;5.83;2.70;;;-0.50;99.90;;;;;;4936623;29;20073;-81
2023/04/04 00:58:03;;;;;;;6.30;2.90;;;-0.50;99.90;;;;;;4936805;29;20027;-80
2023/04/04 01:00:28;;;;;;;6.13;3.00;;;-0.60;99.90;;;;;;4936708;29;20509;-80
2023/04/04 01:02:54;;;;;;;6.10;2.30;;;-0.60;99.90;;;;;;4919879;29;21292;-79
2023/04/04 01:05:19;;;;;;;4.90;2.60;;;-0.60;99.90;;;;;;4936379;29;20131;-80
2023/04/04 01:07:45;;;;;;;4.60;2.50;;;-0.70;99.90;;;;;;4936702;29;20023;-80
2023/04/04 01:10:11;;;;;;;5.07;2.40;;;-0.70;99.90;;;;;;4936632;28;20023;-80
2023/04/04 01:12:38;;;;;;;6.57;2.73;;;-0.70;99.90;;;;;;4936369;29;20074;-80
2023/04/04 01:15:04;;;;;;;5.50;2.80;;;-0.70;99.90;;;;;;4936182;29;20174;-81
2023/04/04 01:17:32;;;;;;;7.90;2.57;;;-0.80;99.90;;;;;;4935824;29;20035;-80
2023/04/04 01:20:06;;;;;;;5.43;2.70;;;-0.80;99.90;;;;;;4936156;29;20036;-81
2023/04/04 01:22:33;;;;;;;7.57;2.53;;;-0.80;99.90;;;;;;4935959;29;20615;-81
2023/04/04 01:25:01;;;;;;;6.23;2.47;;;-0.80;99.90;;;;;;4935914;29;20035;-81
2023/04/04 01:27:26;;;;;;;8.33;2.63;;;-0.90;99.90;;;;;;4936052;29;20028;-81
2023/04/04 01:29:52;;;;;;;5.83;2.80;;;-0.80;99.90;;;;;;4936260;29;20035;-81
2023/04/04 01:32:20;;;;;;;5.67;2.73;;;-0.90;99.90;;;;;;4935764;28;20406;-81
2023/04/04 01:35:04;;;;;;;6.37;2.70;;;-0.90;99.90;;;;;;4936054;29;20035;-80
2023/04/04 01:37:55;;;;;;;4.32;2.35;;;-1.00;99.90;;;;;;4936041;29;20032;-81
2023/04/04 01:40:24;;;;;;;4.00;2.57;;;-1.00;99.90;;;;;;4936354;29;20035;-80
2023/04/04 01:42:50;;;;;;;7.23;2.70;;;-1.00;99.90;;;;;;4935592;28;20871;-81
2023/04/04 01:45:16;;;;;;;6.97;2.80;;;-1.10;99.90;;;;;;4919248;29;20028;-81
2023/04/04 01:47:42;;;;;;;5.53;2.53;;;-1.10;99.90;;;;;;4935192;29;20027;-81
2023/04/04 01:50:10;;;;;;;6.77;2.70;;;-1.10;99.90;;;;;;4936058;29;20055;-81
2023/04/04 01:52:36;;;;;;;4.70;2.43;;;-1.20;99.90;;;;;;4919140;29;20050;-80
2023/04/04 01:55:02;;;;;;;4.17;2.33;;;-1.20;99.90;;;;;;4935915;28;20039;-81
2023/04/04 01:57:35;;;;;;;5.90;2.63;;;-1.20;99.90;;;;;;4935578;29;20391;-81
2023/04/04 02:00:00;;;;;;;4.50;2.40;;;-1.20;99.90;;;;;;4935678;29;20023;-81
2023/04/04 02:02:26;;;;;;;6.10;2.57;;;-1.30;99.90;;;;;;4935312;29;20090;-81
2023/04/04 02:04:52;;;;;;;6.90;2.43;;;-1.30;99.90;;;;;;4935491;29;20067;-81
2023/04/04 02:07:18;;;;;;;3.47;2.30;;;-1.30;99.90;;;;;;4935146;29;20055;-81
2023/04/04 02:09:43;;;;;;;8.90;2.70;;;-1.40;99.90;;;;;;4935389;29;20100;-81
2023/04/04 02:12:09;;;;;;;7.73;2.67;;;-1.40;99.90;;;;;;4935354;29;20040;-81
2023/04/04 02:14:35;;;;;;;5.23;2.43;;;-1.40;99.90;;;;;;4935427;29;20368;-80
2023/04/04 02:17:00;;;;;;;6.57;3.23;;;-1.40;99.90;;;;;;4934916;28;20495;-81
2023/04/04 02:19:26;;;;;;;5.13;2.40;;;-1.40;99.90;;;;;;4935467;29;20124;-81
2023/04/04 02:21:51;;;;;;;6.37;2.93;;;-1.40;99.90;;;;;;4934782;29;20114;-81
2023/04/04 02:24:17;;;;;;;4.20;2.47;;;-1.50;99.90;;;;;;4918499;29;20097;-81
2023/04/04 02:26:43;;;;;;;8.20;2.70;;;-1.50;99.90;;;;;;4934948;29;20113;-81
2023/04/04 02:29:08;;;;;;;5.93;2.93;;;-1.60;99.90;;;;;;4935005;29;20043;-81
2023/04/04 02:31:34;;;;;;;4.97;2.50;;;-1.60;99.90;;;;;;4934700;29;20321;-81
2023/04/04 02:34:00;;;;;;;5.87;2.70;;;-1.60;99.90;;;;;;4934983;28;20038;-81
2023/04/04 02:36:26;;;;;;;4.47;2.30;;;-1.60;99.90;;;;;;4934891;29;20039;-80
2023/04/04 02:38:52;;;;;;;6.03;2.70;;;-1.70;99.90;;;;;;4935217;29;20403;-81
2023/04/04 02:41:18;;;;;;;4.77;2.27;;;-1.70;99.90;;;;;;4934312;29;20047;-81
2023/04/04 02:43:43;;;;;;;7.00;2.37;;;-1.70;99.90;;;;;;4934689;29;21010;-81
2023/04/04 02:46:09;;;;;;;7.90;2.70;;;-1.70;99.90;;;;;;4934410;29;20035;-81
2023/04/04 02:48:35;;;;;;;6.90;2.83;;;-1.70;99.90;;;;;;4918877;29;20229;-81
2023/04/04 02:51:01;;;;;;;5.53;2.60;;;-1.70;99.90;;;;;;4934438;29;20492;-81
2023/04/04 02:53:27;;;;;;;5.03;2.63;;;-1.70;99.90;;;;;;4934669;29;20041;-81
2023/04/04 02:55:53;;;;;;;7.23;2.57;;;-1.70;99.90;;;;;;4934284;29;20110;-81
2023/04/04 02:58:19;;;;;;;5.77;2.60;;;-1.70;99.90;;;;;;4934529;29;20030;-81
2023/04/04 03:00:46;;;;;;;8.30;3.07;;;-1.70;99.90;;;;;;4933981;28;20483;-81
2023/04/04 03:03:11;;;;;;;6.67;2.70;;;-1.70;99.90;;;;;;4934419;29;20050;-81
2023/04/04 03:05:37;;;;;;;7.00;3.07;;;-1.80;99.90;;;;;;4934535;29;20031;-81
2023/04/04 03:08:03;;;;;;;7.83;2.90;;;-1.80;99.90;;;;;;4933955;29;20032;-81
2023/04/04 03:10:29;;;;;;;4.97;2.53;;;-1.80;99.90;;;;;;4934950;29;20031;-81
2023/04/04 03:12:55;;;;;;;6.10;2.60;;;-1.80;99.90;;;;;;4933947;29;20440;-81
2023/04/04 03:15:21;;;;;;;5.27;2.50;;;-1.80;99.90;;;;;;4934786;29;20656;-81
2023/04/04 03:17:46;;;;;;;5.83;3.13;;;-1.80;99.90;;;;;;4933836;28;20245;-82
2023/04/04 03:20:13;;;;;;;6.40;2.60;;;-1.80;99.90;;;;;;4935117;29;20091;-82
2023/04/04 03:22:40;;;;;;;6.17;3.00;;;-1.80;99.90;;;;;;4934113;28;20035;-82
2023/04/04 03:25:05;;;;;;;6.30;2.87;;;-1.80;99.90;;;;;;4934376;29;20035;-82
2023/04/04 03:27:31;;;;;;;5.53;2.70;;;-1.90;99.90;;;;;;4933791;29;20024;-82
2023/04/04 03:29:58;;;;;;;6.20;2.67;;;-1.90;99.90;;;;;;4934221;29;20792;-82
2023/04/04 03:32:24;;;;;;;6.63;2.70;;;-1.90;99.90;;;;;;4934334;28;20023;-82
2023/04/04 03:34:50;;;;;;;8.50;3.93;;;-1.90;99.90;;;;;;4934017;29;20028;-82
2023/04/04 03:37:16;;;;;;;6.83;2.50;;;-1.90;99.90;;;;;;4933906;29;20453;-82
2023/04/04 03:39:42;;;;;;;9.33;2.77;;;-2.00;99.90;;;;;;4934043;29;20031;-83
2023/04/04 03:42:07;;;;;;;8.60;2.70;;;-2.00;99.90;;;;;;4933494;29;20056;-82
2023/04/04 03:44:33;;;;;;;4.77;2.43;;;-2.00;99.90;;;;;;4934062;29;20050;-83
2023/04/04 03:46:58;;;;;;;6.63;2.47;;;-2.00;99.90;;;;;;4933778;29;20070;-83
2023/04/04 03:49:24;;;;;;;6.23;2.50;;;-2.00;99.90;;;;;;4933859;29;20447;-83
2023/04/04 03:51:50;;;;;;;5.13;2.67;;;-2.00;99.90;;;;;;4933859;28;20048;-83
2023/04/04 03:54:16;;;;;;;7.37;3.47;;;-2.10;99.90;;;;;;4917390;29;20032;-82
2023/04/04 03:56:42;;;;;;;7.13;2.90;;;-2.10;99.90;;;;;;4934064;29;20360;-83
2023/04/04 03:59:10;;;;;;;5.07;2.50;;;-2.10;99.90;;;;;;4934069;29;20047;-82
2023/04/04 04:01:35;;;;;;;7.17;2.93;;;-2.10;99.90;;;;;;4932018;29;20092;-82
2023/04/04 04:04:01;;;;;;;6.77;2.77;;;-2.10;99.90;;;;;;4933857;29;20044;-82
2023/04/04 04:06:26;;;;;;;6.27;2.73;;;-2.10;99.90;;;;;;4933462;28;20114;-83
2023/04/04 04:08:52;;;;;;;6.70;3.17;;;-2.10;99.90;;;;;;4934019;29;20031;-83
2023/04/04 04:11:18;;;;;;;5.77;2.67;;;-2.20;99.90;;;;;;4934809;28;20091;-83
2023/04/04 04:13:43;;;;;;;7.30;3.17;;;-2.20;99.90;;;;;;4938016;29;20035;-83
2023/04/04 04:16:09;;;;;;;10.33;4.30;;;-2.20;99.90;;;;;;4935294;29;20027;-83
2023/04/04 04:18:35;;;;;;;7.00;2.97;;;-2.20;99.90;;;;;;4937127;28;20026;-83
2023/04/04 04:21:02;;;;;;;21.07;11.97;;;-2.20;99.90;;;;;;4936761;29;20119;-83
2023/04/04 04:23:30;;;;;;;11.37;8.10;;;-2.20;99.90;;;;;;4920019;29;20052;-83
2023/04/04 04:25:55;;;;;;;9.67;6.73;;;-2.20;99.90;;;;;;4936411;29;20054;-83
2023/04/04 04:28:23;;;;;;;28.67;26.13;;;-2.20;99.90;;;;;;4935822;29;20521;-83
2023/04/04 04:30:50;;;;;;;8.87;5.83;;;-2.30;99.90;;;;;;4935113;29;20121;-83
2023/04/04 04:33:15;;;;;;;6.70;4.60;;;-2.30;99.90;;;;;;4935179;29;20040;-83
2023/04/04 04:35:41;;;;;;;12.70;4.77;;;-2.20;99.90;;;;;;4935798;29;20024;-83
2023/04/04 04:38:07;;;;;;;5.77;2.87;;;-2.20;99.90;;;;;;4935745;29;20498;-83
2023/04/04 04:40:33;;;;;;;8.83;2.80;;;-2.20;99.90;;;;;;4936833;28;20039;-83
2023/04/04 04:42:59;;;;;;;6.03;2.97;;;-2.20;99.90;;;;;;4936355;29;20059;-84
2023/04/04 04:45:25;;;;;;;8.60;3.77;;;-2.20;99.90;;;;;;4936599;29;20046;-83
2023/04/04 04:47:53;;;;;;;11.90;2.90;;;-2.20;99.90;;;;;;4936334;29;20038;-83
2023/04/04 04:50:18;;;;;;;10.23;4.63;;;-2.20;99.90;;;;;;4935970;29;20110;-83
2023/04/04 04:52:44;;;;;;;23.43;12.80;;;-2.20;99.90;;;;;;4935374;29;21046;-83
2023/04/04 04:55:10;;;;;;;9.43;3.70;;;-2.20;99.90;;;;;;4935364;29;20475;-83
2023/04/04 04:57:37;;;;;;;9.10;3.00;;;-2.20;99.90;;;;;;4936097;29;20039;-82
2023/04/04 05:00:03;;;;;;;8.33;3.53;;;-2.20;99.90;;;;;;4935015;28;20030;-83
2023/04/04 05:02:29;;;;;;;9.20;3.07;;;-2.20;99.90;;;;;;4933884;29;20043;-84
2023/04/04 05:04:55;;;;;;;9.20;3.10;;;-2.30;99.90;;;;;;4937064;28;20055;-84
2023/04/04 05:07:22;;;;;;;8.47;2.87;;;-2.30;99.90;;;;;;4936924;28;20479;-83
2023/04/04 05:09:47;;;;;;;11.20;3.73;;;-2.30;99.90;;;;;;4938110;29;20117;-84
2023/04/04 05:12:13;;;;;;;12.23;3.40;;;-2.20;99.90;;;;;;4938950;29;20036;-83
2023/04/04 05:14:41;;;;;;;13.20;3.97;;;-2.20;99.90;;;;;;4938481;29;20086;-83
2023/04/04 05:17:06;;;;;;;13.13;7.03;;;-2.30;99.90;;;;;;4937249;29;20166;-83
2023/04/04 05:19:32;;;;;;;16.83;7.80;;;-2.30;99.90;;;;;;4936635;29;20452;-83
2023/04/04 05:21:58;;;;;;;12.47;4.50;;;-2.30;99.90;;;;;;4935813;29;20177;-83
2023/04/04 05:24:24;;;;;;;12.13;3.97;;;-2.20;99.90;;;;;;4936280;29;20399;-81
2023/04/04 05:26:50;;;;;;;12.70;3.20;;;-2.30;99.90;;;;;;4937452;29;20035;-83
2023/04/04 05:29:15;;;;;;;10.20;3.10;;;-2.20;99.90;;;;;;4937020;29;20042;-83
2023/04/04 05:31:41;;;;;;;5.37;2.93;;;-2.10;99.90;;;;;;4936378;29;20058;-83
2023/04/04 05:34:09;;;;;;;10.07;3.20;;;-2.00;99.90;;;;;;4935966;29;20058;-83
2023/04/04 05:36:35;;;;;;;11.23;3.47;;;-1.90;99.90;;;;;;4935317;29;20030;-83
2023/04/04 05:39:04;;;;;;;9.20;3.90;;;-1.90;99.90;;;;;;4936163;29;20085;-81
2023/04/04 05:41:30;;;;;;;14.50;5.47;;;-1.80;99.90;;;;;;4935375;28;20056;-81
2023/04/04 05:43:56;;;;;;;9.23;6.13;;;-1.80;99.90;;;;;;4936310;29;20078;-82
2023/04/04 05:46:22;;;;;;;13.63;6.40;;;-1.80;99.90;;;;;;4936020;28;20023;-81
2023/04/04 05:48:49;;;;;;;7.77;3.37;;;-1.80;99.90;;;;;;4935418;29;20032;-81
2023/04/04 05:51:14;;;;;;;6.90;3.53;;;-1.80;99.90;;;;;;4935079;29;21663;-81
2023/04/04 05:53:40;;;;;;;8.53;3.77;;;-1.70;99.90;;;;;;4935871;29;20027;-81
2023/04/04 05:56:05;;;;;;;13.07;4.10;;;-1.70;99.90;;;;;;4935529;29;20020;-81
2023/04/04 05:58:31;;;;;;;12.50;3.17;;;-1.70;99.90;;;;;;4935759;29;20027;-81
2023/04/04 06:00:56;;;;;;;8.90;3.97;;;-1.60;99.90;;;;;;4935538;29;20028;-81
2023/04/04 06:03:22;;;;;;;14.10;3.93;;;-1.60;99.90;;;;;;4935434;29;20474;-81
2023/04/04 06:05:51;;;;;;;11.50;4.17;;;-1.50;99.90;;;;;;4934683;28;20031;-80
2023/04/04 06:08:22;;;;;;;10.83;3.97;;;-1.40;99.90;;;;;;4934982;28;20033;-80
2023/04/04 06:10:52;;;;;;;10.23;3.40;;;-1.40;99.90;;;;;;4935264;29;20099;-79
2023/04/04 06:13:17;;;;;;;12.03;3.80;;;-1.30;99.90;;;;;;4935401;29;20591;-80
2023/04/04 06:28:49;;;;;;;8.83;3.47;;;-0.80;99.90;;;;;;5147503;23;20150;-80
2023/04/04 06:31:16;;;;;;;6.00;3.33;;;-0.80;99.90;;;;;;4930682;29;20418;-81
2023/04/04 06:33:41;;;;;;;6.40;2.90;;;-0.70;99.90;;;;;;4928804;29;20184;-80
2023/04/04 06:36:07;;;;;;;10.33;3.20;;;-0.70;99.90;;;;;;4927932;29;20443;-81
2023/04/04 06:38:32;;;;;;;7.00;3.43;;;-0.60;99.90;;;;;;4934173;29;20020;-82
2023/04/04 06:40:58;;;;;;;7.67;3.40;;;-0.50;99.90;;;;;;4944423;29;20043;-81
2023/04/04 06:43:24;;;;;;;21.77;13.13;;;-0.40;99.90;;;;;;4934282;29;20049;-80
2023/04/04 06:45:50;;;;;;;22.73;13.37;;;-0.40;99.90;;;;;;4934914;29;20448;-85
2023/04/04 06:48:15;;;;;;;16.17;8.90;;;-0.30;99.90;;;;;;4934458;29;20030;-85
2023/04/04 06:50:41;;;;;;;24.47;10.03;;;-0.20;99.90;;;;;;4935183;29;20574;-84
2023/04/04 06:53:07;;;;;;;11.83;4.67;;;-0.10;99.90;;;;;;4958138;23;20050;-92
2023/04/04 06:55:33;;;;;;;46.43;20.30;;;-0.10;99.90;;;;;;4945947;29;20472;-91
2023/04/04 06:58:00;;;;;;;23.00;12.37;;;0.10;99.90;;;;;;4962281;28;20528;-94
2023/04/04 07:00:26;;;;;;;16.73;9.33;;;0.00;99.90;;;;;;4946002;29;20462;-93
2023/04/04 07:02:59;;;;;;;15.30;6.93;;;0.00;99.90;;;;;;4945702;29;20032;-95
2023/04/04 07:05:25;;;;;;;26.10;18.07;;;0.10;99.90;;;;;;4962822;28;20495;-95
2023/04/04 07:07:55;;;;;;;7.20;3.60;;;0.20;99.90;;;;;;4945508;29;20023;-93
2023/04/04 07:10:23;;;;;;;8.23;5.27;;;0.20;99.90;;;;;;4946263;29;20453;-94
2023/04/04 07:12:50;;;;;;;7.63;3.40;;;0.30;99.90;;;;;;4945402;29;20043;-93
2023/04/04 07:15:16;;;;;;;9.20;3.40;;;0.40;99.90;;;;;;4962686;28;20800;-93
2023/04/04 07:17:42;;;;;;;8.37;4.90;;;0.40;99.90;;;;;;4962895;29;20019;-95
2023/04/04 07:20:08;;;;;;;12.07;4.67;;;0.50;99.90;;;;;;4945716;29;20027;-94
2023/04/04 07:22:38;;;;;;;5.27;3.50;;;0.60;99.90;;;;;;4946178;29;20454;-95
2023/04/04 07:25:05;;;;;;;10.33;5.50;;;0.70;99.90;;;;;;4945312;29;20469;-94
2023/04/04 07:27:31;;;;;;;11.40;5.43;;;0.70;99.90;;;;;;4962490;28;20550;-95
2023/04/04 07:29:57;;;;;;;12.17;4.53;;;0.80;99.90;;;;;;4944908;29;20023;-94
2023/04/04 07:32:23;;;;;;;8.27;4.00;;;0.90;99.90;;;;;;4944758;29;20015;-94
2023/04/04 07:34:50;;;;;;;13.83;3.90;;;1.00;99.90;;;;;;4944583;29;20023;-92
2023/04/04 07:37:17;;;;;;;13.47;6.37;;;1.00;99.90;;;;;;4945181;29;20430;-96
2023/04/04 07:39:43;;;;;;;10.07;4.90;;;1.00;99.90;;;;;;4945244;29;20470;-95
2023/04/04 07:42:09;;;;;;;9.87;4.53;;;1.10;99.90;;;;;;4945514;29;20386;-95
2023/04/04 07:44:35;;;;;;;9.30;5.00;;;1.20;99.90;;;;;;4945373;29;20114;-94
2023/04/04 07:47:01;;;;;;;15.73;4.93;;;1.30;99.90;;;;;;4967165;28;20026;-96
2023/04/04 07:49:27;;;;;;;9.97;4.40;;;1.40;99.90;;;;;;4950948;29;20098;-95
2023/04/04 07:51:54;;;;;;;13.27;4.97;;;1.50;99.90;;;;;;4951650;29;20369;-94
2023/04/04 07:54:21;;;;;;;10.47;4.30;;;1.50;99.90;;;;;;4968552;28;20051;-95
2023/04/04 07:56:47;;;;;;;22.07;7.33;;;1.60;99.90;;;;;;4951979;29;20396;-96
2023/04/04 07:59:12;;;;;;;7.97;4.07;;;1.60;99.90;;;;;;4952342;29;20476;-95
2023/04/04 08:01:40;;;;;;;6.67;4.13;;;1.70;99.90;;;;;;4951213;29;20083;-95
2023/04/04 08:04:06;;;;;;;6.57;3.40;;;1.70;99.90;;;;;;4961393;29;20499;-86
2023/04/04 08:06:33;;;;;;;7.43;3.60;;;1.60;99.90;;;;;;4961395;28;20050;-86
2023/04/04 08:08:59;;;;;;;16.57;7.83;;;1.70;99.90;;;;;;4961403;28;20450;-87
2023/04/04 08:11:30;;;;;;;7.00;3.60;;;1.70;99.90;;;;;;4951058;29;20015;-96
2023/04/04 08:13:56;;;;;;;9.27;3.50;;;1.80;99.90;;;;;;4941772;29;20035;-96
2023/04/04 08:16:24;;;;;;;10.13;4.37;;;1.90;99.90;;;;;;4959672;29;20111;-96
2023/04/04 08:18:53;;;;;;;5.90;3.43;;;1.80;99.90;;;;;;4957728;29;20508;-96
2023/04/04 08:21:22;;;;;;;5.90;3.00;;;1.90;99.90;;;;;;4956785;29;20015;-96
2023/04/04 08:23:49;;;;;;;5.23;2.97;;;1.90;99.90;;;;;;4956210;29;20027;-96
2023/04/04 08:26:15;;;;;;;7.07;3.90;;;2.00;99.90;;;;;;4956035;29;20390;-96
2023/04/04 08:28:44;;;;;;;5.93;3.27;;;2.10;99.90;;;;;;4956285;29;20385;-96
2023/04/04 08:31:12;;;;;;;8.47;4.40;;;2.20;99.90;;;;;;4958188;29;20011;-96
2023/04/04 08:33:39;;;;;;;8.97;3.80;;;2.40;99.90;;;;;;4957185;29;20437;-96
2023/04/04 08:36:06;;;;;;;6.60;3.57;;;2.40;99.90;;;;;;4942164;29;20371;-96
2023/04/04 08:38:33;;;;;;;7.03;4.43;;;2.40;99.90;;;;;;4956906;29;20517;-96
2023/04/04 08:40:59;;;;;;;8.73;3.97;;;2.50;99.90;;;;;;4974376;28;20473;-96
2023/04/04 08:43:26;;;;;;;8.13;4.90;;;2.60;99.90;;;;;;4973585;28;20027;-96
2023/04/04 08:45:53;;;;;;;9.30;3.77;;;2.70;99.90;;;;;;4954515;29;20385;-96
2023/04/04 08:48:22;;;;;;;12.60;4.03;;;2.80;99.90;;;;;;4952920;29;20039;-96
2023/04/04 08:50:50;;;;;;;10.57;4.03;;;2.90;99.90;;;;;;4952775;29;20430;-96
2023/04/04 08:53:16;;;;;;;6.97;3.93;;;2.90;99.90;;;;;;4937714;28;20402;-96
2023/04/04 08:55:43;;;;;;;6.80;3.40;;;2.70;99.90;;;;;;4953476;29;20051;-96
2023/04/04 08:58:11;;;;;;;6.97;3.60;;;2.70;99.90;;;;;;4950495;29;20034;-96
2023/04/04 09:00:39;;;;;;;4.50;3.13;;;2.70;99.90;;;;;;4949446;29;20347;-96
2023/04/04 09:03:23;;;;;;;7.20;3.00;;;2.70;99.90;;;;;;4951740;29;20021;-96
2023/04/04 09:09:11;;;;;;;6.77;4.50;;;2.60;99.90;;;;;;4965720;29;20037;-95
2023/04/04 09:11:39;;;;;;;5.63;3.17;;;2.60;99.90;;;;;;4947588;29;20023;-96
2023/04/04 09:14:05;;;;;;;6.93;3.80;;;2.80;99.90;;;;;;4948425;29;20496;-96
2023/04/04 09:16:32;;;;;;;5.43;3.50;;;2.90;99.90;;;;;;4948469;29;20529;-96
2023/04/04 09:18:58;;;;;;;6.67;3.60;;;3.00;99.90;;;;;;4948389;29;20019;-96
2023/04/04 09:21:25;;;;;;;5.27;3.27;;;3.20;99.90;;;;;;4948534;29;20480;-96
2023/04/04 09:24:01;;;;;;;8.03;3.27;;;3.30;99.90;;;;;;4948683;29;20042;-96
2023/04/04 09:26:28;;;;;;;6.03;3.60;;;3.40;99.90;;;;;;4948215;29;20473;-96
2023/04/04 09:28:54;;;;;;;6.40;3.50;;;3.40;99.90;;;;;;4948486;29;20059;-96
2023/04/04 09:31:23;;;;;;;6.33;3.23;;;3.50;99.90;;;;;;4948202;29;20521;-96
2023/04/04 09:33:50;;;;;;;6.10;3.30;;;3.50;99.90;;;;;;4947849;29;20489;-96
2023/04/04 09:36:16;;;;;;;3.93;2.87;;;3.60;99.90;;;;;;4947401;29;20488;-95
2023/04/04 09:38:43;;;;;;;9.83;3.33;;;3.70;99.90;;;;;;4948444;29;20540;-95
2023/04/04 09:41:10;;;;;;;8.30;3.80;;;3.60;99.90;;;;;;4947261;29;20454;-96
2023/04/04 09:43:38;;;;;;;6.23;3.33;;;3.50;99.90;;;;;;4947382;29;20478;-96
2023/04/04 09:46:05;;;;;;;6.87;2.93;;;3.40;99.90;;;;;;4948182;29;20470;-96
2023/04/04 09:48:33;;;;;;;6.37;3.20;;;3.40;99.90;;;;;;4948423;29;20501;-96
2023/04/04 09:51:02;;;;;;;5.93;3.10;;;3.50;99.90;;;;;;4947696;29;20023;-96
2023/04/04 09:53:28;;;;;;;5.97;3.30;;;3.50;99.90;;;;;;4947407;29;20115;-96
2023/04/04 09:55:56;;;;;;;5.60;3.10;;;3.50;99.90;;;;;;4948283;29;20458;-96
2023/04/04 09:58:28;;;;;;;6.90;2.80;;;3.60;99.90;;;;;;4947777;29;20042;-96
2023/04/04 10:00:58;;;;;;;4.43;3.07;;;3.70;99.90;;;;;;4947856;29;20466;-96
2023/04/04 10:03:24;;;;;;;7.47;3.13;;;3.80;99.90;;;;;;4947430;29;20486;-96
2023/04/04 10:06:01;;;;;;;10.23;4.23;;;4.10;99.90;;;;;;4964317;29;20015;-96
2023/04/04 10:08:29;;;;;;;8.30;3.70;;;4.50;99.90;;;;;;4946977;28;20450;-96
2023/04/04 10:11:00;;;;;;;9.23;4.80;;;4.40;99.90;;;;;;4947462;29;20495;-96
2023/04/04 10:13:28;;;;;;;5.57;3.73;;;4.20;99.90;;;;;;4947584;29;20465;-96
2023/04/04 10:15:56;;;;;;;6.03;3.30;;;4.10;99.90;;;;;;4931140;29;20373;-94
2023/04/04 10:18:26;;;;;;;6.53;3.13;;;4.00;99.90;;;;;;4947472;29;20481;-96
2023/04/04 10:20:55;;;;;;;6.53;3.10;;;4.20;99.90;;;;;;4947388;29;20461;-95
2023/04/04 10:23:23;;;;;;;6.33;3.20;;;4.60;99.90;;;;;;4946578;29;20420;-96
2023/04/04 10:25:50;;;;;;;5.03;2.97;;;4.90;99.90;;;;;;4931922;29;20041;-95
2023/04/04 10:28:17;;;;;;;5.00;2.87;;;4.80;99.90;;;;;;4946551;29;20454;-96
2023/04/04 10:30:48;;;;;;;14.70;5.83;;;4.60;99.90;;;;;;4946979;29;20558;-96
2023/04/04 10:33:31;;;;;;;6.60;3.67;;;4.50;99.90;;;;;;4947122;29;20468;-96
2023/04/04 10:36:02;;;;;;;5.47;3.10;;;4.40;99.90;;;;;;4946665;29;20091;-95
2023/04/04 10:38:32;;;;;;;7.50;3.20;;;4.30;99.90;;;;;;4946591;29;20458;-96
2023/04/04 10:41:00;;;;;;;5.27;3.10;;;4.40;99.90;;;;;;4931268;29;20027;-96
2023/04/04 10:43:31;;;;;;;6.17;3.07;;;4.60;99.90;;;;;;4945915;29;20054;-96
2023/04/04 10:46:07;;;;;;;6.50;3.30;;;4.80;99.90;;;;;;4930909;29;20446;-95
2023/04/04 10:48:32;;;;;;;;;;;4.80;99.90;;;;;;4946871;29;20351;-96
2023/04/04 10:50:59;;;;;;;7.73;3.60;;;4.80;99.90;;;;;;4946867;29;20048;-96
2023/04/04 10:53:26;;;;;;;5.93;4.07;;;4.80;99.90;;;;;;4946888;29;20500;-96
2023/04/04 10:55:52;;;;;;;6.50;3.77;;;5.00;99.90;;;;;;4948899;29;20489;-94
2023/04/04 10:58:21;;;;;;;5.53;3.97;;;5.20;99.90;;;;;;4948212;29;20041;-95
2023/04/04 11:00:54;;;;;;;7.13;3.60;;;5.20;99.90;;;;;;4950648;28;20015;-91
2023/04/04 11:03:21;;;;;;;6.80;3.27;;;5.10;99.90;;;;;;4965131;29;20408;-96
2023/04/04 11:06:00;;;;;;;6.07;3.37;;;4.90;99.90;;;;;;4951739;28;20022;-96
2023/04/04 11:10:53;;;;;;;7.70;3.30;;;4.60;99.90;;;;;;5430381;23;20081;-94
2023/04/04 11:13:40;;;;;;;5.77;3.07;;;4.50;99.90;;;;;;4956617;28;20016;-91
2023/04/04 11:16:13;;;;;;;5.73;2.80;;;4.30;99.90;;;;;;5001316;23;20050;-89
2023/04/04 11:18:44;;;;;;;4.20;3.10;;;4.30;99.90;;;;;;4999253;23;20027;-95
2023/04/04 11:21:34;;;;;;;5.33;3.13;;;4.50;99.90;;;;;;5103204;23;20085;-96
2023/04/04 11:26:26;;;;;;;5.37;3.07;;;4.40;99.90;;;;;;4994927;23;20054;-96
2023/04/04 11:29:03;;;;;;;5.17;3.27;;;4.20;99.90;;;;;;4960283;29;20019;-96
2023/04/04 11:35:05;;;;;;;6.07;3.33;;;4.20;99.90;;;;;;4973744;29;20034;-96
2023/04/04 11:38:34;;;;;;;7.57;4.10;;;4.30;99.90;;;;;;4972755;28;20039;-96
2023/04/04 11:44:55;;;;;;;4.53;2.90;;;4.90;99.90;;;;;;4897334;29;20084;-96
2023/04/04 11:52:34;;;;;;;7.57;3.23;;;5.80;99.90;;;;;;4969668;29;20055;-96
2023/04/04 11:55:14;;;;;;;18.87;8.70;;;5.60;99.90;;;;;;4960619;29;20030;-96
2023/04/04 12:00:07;;;;;;;5.00;3.40;;;5.90;99.90;;;;;;5225049;23;20090;-96
2023/04/04 12:02:37;;;;;;;6.67;3.57;;;6.20;99.90;;;;;;4957782;28;20065;-93
2023/04/04 12:14:56;;;;;;;5.77;3.10;;;7.00;99.90;;;;;;4896001;29;20566;-85
2023/04/04 12:17:22;;;;;;;5.40;3.23;;;7.20;99.90;;;;;;4896108;29;20464;-84
2023/04/04 12:19:47;;;;;;;9.70;3.33;;;7.20;98.90;;;;;;4939695;29;20213;-85
2023/04/04 12:22:15;;;;;;;7.13;3.40;;;7.00;99.40;;;;;;4937704;29;20453;-85
2023/04/04 12:24:41;;;;;;;6.83;3.43;;;6.90;99.90;;;;;;4937133;29;20027;-85
2023/04/04 12:27:07;;;;;;;5.83;3.03;;;7.10;99.40;;;;;;4954468;29;20090;-85
2023/04/04 12:29:35;;;;;;;5.87;2.97;;;7.20;98.40;;;;;;4954477;28;20454;-84
2023/04/04 12:32:02;;;;;;;5.17;3.07;;;7.20;99.10;;;;;;4954485;28;20458;-85
2023/04/04 12:34:30;;;;;;;7.20;3.73;;;7.20;99.20;;;;;;4957438;28;20496;-85
2023/04/04 12:36:57;;;;;;;7.83;3.20;;;6.90;98.50;;;;;;4940911;29;20442;-85
2023/04/04 12:39:27;;;;;;;8.50;3.63;;;6.30;98.40;;;;;;4958205;28;20458;-85
2023/04/04 12:41:56;;;;;;;4.73;2.80;;;6.00;99.90;;;;;;4959115;28;20513;-84
2023/04/04 12:44:42;;;;;;;8.10;3.70;;;6.10;99.90;;;;;;4958301;29;20469;-84
2023/04/04 12:47:10;;;;;;;6.13;3.30;;;6.60;98.60;;;;;;4958593;29;20529;-84
2023/04/04 12:49:47;;;;;;;5.33;3.10;;;6.90;99.30;;;;;;4941321;29;20489;-84
2023/04/04 12:52:19;;;;;;;4.80;3.00;;;7.40;98.70;;;;;;4959005;29;20466;-85
2023/04/04 12:54:45;;;;;;;7.63;3.60;;;7.90;96.10;;;;;;4940701;29;20454;-84
2023/04/04 12:57:17;;;;;;;5.27;3.37;;;8.00;96.50;;;;;;4940793;29;20389;-84
2023/04/04 12:59:47;;;;;;;6.13;3.03;;;8.20;95.40;;;;;;4958196;29;20476;-85
2023/04/04 13:02:17;;;;;;;7.13;3.10;;;8.50;96.20;;;;;;4957854;28;20098;-84
2023/04/04 13:04:48;;;;;;;6.93;3.17;;;8.40;94.80;;;;;;4957785;29;20419;-84
2023/04/04 13:07:37;;;;;;;6.17;2.93;;;8.50;95.10;;;;;;4957742;28;20466;-84
2023/04/04 13:10:05;;;;;;;4.40;2.87;;;8.40;96.70;;;;;;4958235;29;20446;-85
2023/04/04 13:12:55;;;;;;;7.33;2.87;;;8.40;96.30;;;;;;4957789;28;20537;-85
2023/04/04 13:15:22;;;;;;;5.73;3.27;;;8.20;92.70;;;;;;4957685;29;20466;-85
2023/04/04 13:17:50;;;;;;;4.00;2.87;;;7.70;93.20;;;;;;4957542;29;20462;-85
2023/04/04 13:20:19;;;;;;;4.47;2.90;;;7.70;92.80;;;;;;4957545;29;20513;-85
2023/04/04 13:22:45;;;;;;;4.83;3.30;;;7.90;91.90;;;;;;4957378;29;20489;-85
2023/04/04 13:25:11;;;;;;;7.43;4.03;;;8.30;93.90;;;;;;4958077;28;20465;-95
2023/04/04 13:27:38;;;;;;;7.30;3.80;;;8.60;95.90;;;;;;4946411;29;20024;-95
2023/04/04 13:30:05;;;;;;;5.73;3.53;;;8.70;94.40;;;;;;4945906;29;20488;-93
2023/04/04 13:32:31;;;;;;;5.43;3.00;;;8.70;92.60;;;;;;4946684;29;20030;-96
2023/04/04 13:34:57;;;;;;;5.07;3.30;;;8.40;91.60;;;;;;4947451;29;20447;-96
2023/04/04 13:37:24;;;;;;;6.67;3.20;;;8.20;93.50;;;;;;4947924;29;20366;-95
2023/04/04 13:39:50;;;;;;;6.80;3.10;;;8.20;94.20;;;;;;4964512;28;20485;-94